sensor_id;sensor_type;location;lat;lon;timestamp;P1;durP1;ratioP1;P2;durP2;ratioP2
22634;SDS011;11484;50.858;4.384;2022-11-11T00:00:29;19.10;;;10.98;;
22634;SDS011;11484;50.858;4.384;2022-11-11T00:02:55;15.15;;;10.43;;
22634;SDS011;11484;50.858;4.384;2022-11-11T00:05:22;18.10;;;10.02;;
22634;SDS011;11484;50.858;4.384;2022-11-11T00:07:53;16.45;;;10.10;;
22634;SDS011;11484;50.858;4.384;2022-11-11T00:10:24;12.98;;;8.95;;
22634;SDS011;11484;50.858;4.384;2022-11-11T00:12:51;13.38;;;9.10;;
22634;SDS011;11484;50.858;4.384;2022-11-11T00:15:16;19.17;;;11.45;;
22634;SDS011;11484;50.858;4.384;2022-11-11T00:17:42;16.85;;;11.73;;
22634;SDS011;11484;50.858;4.384;2022-11-11T00:20:26;21.17;;;11.93;;
22634;SDS011;11484;50.858;4.384;2022-11-11T00:23:19;24.08;;;12.30;;
22634;SDS011;11484;50.858;4.384;2022-11-11T00:26:11;20.60;;;11.43;;
22634;SDS011;11484;50.858;4.384;2022-11-11T00:28:38;16.20;;;10.90;;
22634;SDS011;11484;50.858;4.384;2022-11-11T00:31:05;18.85;;;11.32;;
22634;SDS011;11484;50.858;4.384;2022-11-11T00:33:33;19.15;;;11.07;;
22634;SDS011;11484;50.858;4.384;2022-11-11T00:35:59;22.88;;;11.48;;
22634;SDS011;11484;50.858;4.384;2022-11-11T00:38:25;18.88;;;11.15;;
22634;SDS011;11484;50.858;4.384;2022-11-11T00:41:14;21.83;;;11.88;;
22634;SDS011;11484;50.858;4.384;2022-11-11T00:43:44;19.58;;;10.98;;
22634;SDS011;11484;50.858;4.384;2022-11-11T00:46:11;19.17;;;10.13;;
22634;SDS011;11484;50.858;4.384;2022-11-11T00:48:57;16.75;;;9.70;;
22634;SDS011;11484;50.858;4.384;2022-11-11T00:51:41;21.08;;;10.35;;
22634;SDS011;11484;50.858;4.384;2022-11-11T00:54:07;14.35;;;9.85;;
22634;SDS011;11484;50.858;4.384;2022-11-11T00:56:33;17.33;;;10.00;;
22634;SDS011;11484;50.858;4.384;2022-11-11T00:59:06;18.85;;;10.25;;
22634;SDS011;11484;50.858;4.384;2022-11-11T01:01:33;19.35;;;10.02;;
22634;SDS011;11484;50.858;4.384;2022-11-11T01:03:59;15.98;;;9.18;;
22634;SDS011;11484;50.858;4.384;2022-11-11T01:06:25;16.52;;;11.65;;
22634;SDS011;11484;50.858;4.384;2022-11-11T01:08:51;17.02;;;9.93;;
22634;SDS011;11484;50.858;4.384;2022-11-11T01:11:19;13.77;;;9.23;;
22634;SDS011;11484;50.858;4.384;2022-11-11T01:13:46;17.05;;;9.73;;
22634;SDS011;11484;50.858;4.384;2022-11-11T01:16:22;16.77;;;10.75;;
22634;SDS011;11484;50.858;4.384;2022-11-11T01:18:50;18.85;;;11.40;;
22634;SDS011;11484;50.858;4.384;2022-11-11T01:21:17;19.33;;;11.82;;
22634;SDS011;11484;50.858;4.384;2022-11-11T01:23:44;19.92;;;12.98;;
22634;SDS011;11484;50.858;4.384;2022-11-11T01:28:47;23.98;;;13.32;;
22634;SDS011;11484;50.858;4.384;2022-11-11T01:31:14;21.83;;;12.35;;
22634;SDS011;11484;50.858;4.384;2022-11-11T01:33:43;23.73;;;13.52;;
22634;SDS011;11484;50.858;4.384;2022-11-11T01:36:10;22.92;;;13.90;;
22634;SDS011;11484;50.858;4.384;2022-11-11T01:38:37;23.30;;;14.00;;
22634;SDS011;11484;50.858;4.384;2022-11-11T01:41:04;24.15;;;13.70;;
22634;SDS011;11484;50.858;4.384;2022-11-11T01:43:54;23.20;;;13.32;;
22634;SDS011;11484;50.858;4.384;2022-11-11T01:46:28;19.70;;;12.82;;
22634;SDS011;11484;50.858;4.384;2022-11-11T01:59:54;19.35;;;12.77;;
22634;SDS011;11484;50.858;4.384;2022-11-11T02:02:31;21.90;;;12.23;;
22634;SDS011;11484;50.858;4.384;2022-11-11T02:05:02;19.92;;;11.07;;
22634;SDS011;11484;50.858;4.384;2022-11-11T02:07:47;17.17;;;11.18;;
22634;SDS011;11484;50.858;4.384;2022-11-11T02:10:13;20.02;;;10.40;;
22634;SDS011;11484;50.858;4.384;2022-11-11T02:12:45;17.10;;;10.23;;
22634;SDS011;11484;50.858;4.384;2022-11-11T02:15:30;15.50;;;9.88;;
22634;SDS011;11484;50.858;4.384;2022-11-11T02:17:56;18.52;;;9.90;;
22634;SDS011;11484;50.858;4.384;2022-11-11T02:20:22;15.45;;;9.43;;
22634;SDS011;11484;50.858;4.384;2022-11-11T02:25:20;17.02;;;10.90;;
22634;SDS011;11484;50.858;4.384;2022-11-11T02:27:49;17.73;;;10.27;;
22634;SDS011;11484;50.858;4.384;2022-11-11T02:30:18;16.25;;;9.32;;
22634;SDS011;11484;50.858;4.384;2022-11-11T02:32:46;15.48;;;10.27;;
22634;SDS011;11484;50.858;4.384;2022-11-11T02:35:18;15.80;;;10.23;;
22634;SDS011;11484;50.858;4.384;2022-11-11T02:37:50;18.25;;;9.80;;
22634;SDS011;11484;50.858;4.384;2022-11-11T02:40:19;12.27;;;8.45;;
22634;SDS011;11484;50.858;4.384;2022-11-11T02:43:22;13.77;;;7.78;;
22634;SDS011;11484;50.858;4.384;2022-11-11T02:45:48;12.13;;;8.40;;
22634;SDS011;11484;50.858;4.384;2022-11-11T02:48:14;13.10;;;8.27;;
22634;SDS011;11484;50.858;4.384;2022-11-11T02:50:40;12.77;;;8.63;;
22634;SDS011;11484;50.858;4.384;2022-11-11T02:53:05;13.40;;;8.40;;
22634;SDS011;11484;50.858;4.384;2022-11-11T02:55:31;14.57;;;8.60;;
22634;SDS011;11484;50.858;4.384;2022-11-11T02:57:57;11.48;;;8.25;;
22634;SDS011;11484;50.858;4.384;2022-11-11T03:00:22;12.32;;;8.32;;
22634;SDS011;11484;50.858;4.384;2022-11-11T03:02:48;11.88;;;8.52;;
22634;SDS011;11484;50.858;4.384;2022-11-11T03:05:14;13.40;;;7.63;;
22634;SDS011;11484;50.858;4.384;2022-11-11T03:07:40;13.25;;;8.52;;
22634;SDS011;11484;50.858;4.384;2022-11-11T03:10:05;13.38;;;7.88;;
22634;SDS011;11484;50.858;4.384;2022-11-11T03:12:31;11.02;;;7.88;;
22634;SDS011;11484;50.858;4.384;2022-11-11T03:14:57;14.52;;;7.57;;
22634;SDS011;11484;50.858;4.384;2022-11-11T03:17:23;12.00;;;7.78;;
22634;SDS011;11484;50.858;4.384;2022-11-11T03:20:08;10.57;;;7.45;;
22634;SDS011;11484;50.858;4.384;2022-11-11T03:23:06;15.13;;;7.95;;
22634;SDS011;11484;50.858;4.384;2022-11-11T03:25:40;14.63;;;8.13;;
22634;SDS011;11484;50.858;4.384;2022-11-11T03:28:11;13.82;;;8.63;;
22634;SDS011;11484;50.858;4.384;2022-11-11T03:30:44;14.82;;;8.65;;
22634;SDS011;11484;50.858;4.384;2022-11-11T03:33:11;15.73;;;9.43;;
22634;SDS011;11484;50.858;4.384;2022-11-11T03:35:38;16.38;;;9.80;;
22634;SDS011;11484;50.858;4.384;2022-11-11T03:38:05;17.80;;;9.77;;
22634;SDS011;11484;50.858;4.384;2022-11-11T03:40:47;15.68;;;9.15;;
22634;SDS011;11484;50.858;4.384;2022-11-11T03:43:16;14.23;;;8.77;;
22634;SDS011;11484;50.858;4.384;2022-11-11T03:45:43;16.15;;;8.93;;
22634;SDS011;11484;50.858;4.384;2022-11-11T03:48:09;15.82;;;8.73;;
22634;SDS011;11484;50.858;4.384;2022-11-11T03:50:35;17.05;;;9.88;;
22634;SDS011;11484;50.858;4.384;2022-11-11T03:53:01;13.98;;;9.52;;
22634;SDS011;11484;50.858;4.384;2022-11-11T03:55:27;14.05;;;10.10;;
22634;SDS011;11484;50.858;4.384;2022-11-11T03:57:53;13.38;;;9.48;;
22634;SDS011;11484;50.858;4.384;2022-11-11T04:00:21;14.85;;;9.18;;
22634;SDS011;11484;50.858;4.384;2022-11-11T04:02:48;15.70;;;8.93;;
22634;SDS011;11484;50.858;4.384;2022-11-11T04:05:33;13.45;;;9.05;;
22634;SDS011;11484;50.858;4.384;2022-11-11T04:08:18;15.00;;;8.77;;
22634;SDS011;11484;50.858;4.384;2022-11-11T04:11:05;11.43;;;8.43;;
22634;SDS011;11484;50.858;4.384;2022-11-11T04:13:34;12.73;;;8.30;;
22634;SDS011;11484;50.858;4.384;2022-11-11T04:16:18;13.18;;;8.55;;
22634;SDS011;11484;50.858;4.384;2022-11-11T04:18:44;11.45;;;8.00;;
22634;SDS011;11484;50.858;4.384;2022-11-11T04:21:28;15.32;;;8.30;;
22634;SDS011;11484;50.858;4.384;2022-11-11T04:26:59;11.98;;;7.57;;
22634;SDS011;11484;50.858;4.384;2022-11-11T04:29:26;12.65;;;7.85;;
22634;SDS011;11484;50.858;4.384;2022-11-11T04:31:54;14.20;;;8.93;;
22634;SDS011;11484;50.858;4.384;2022-11-11T04:34:39;16.42;;;8.07;;
22634;SDS011;11484;50.858;4.384;2022-11-11T04:37:06;16.50;;;9.50;;
22634;SDS011;11484;50.858;4.384;2022-11-11T04:39:32;15.68;;;8.98;;
22634;SDS011;11484;50.858;4.384;2022-11-11T04:42:16;13.05;;;9.18;;
22634;SDS011;11484;50.858;4.384;2022-11-11T04:44:42;13.80;;;9.27;;
22634;SDS011;11484;50.858;4.384;2022-11-11T04:47:26;14.60;;;9.25;;
22634;SDS011;11484;50.858;4.384;2022-11-11T04:49:52;14.73;;;9.13;;
22634;SDS011;11484;50.858;4.384;2022-11-11T04:52:18;12.45;;;8.20;;
22634;SDS011;11484;50.858;4.384;2022-11-11T04:54:56;12.98;;;7.75;;
22634;SDS011;11484;50.858;4.384;2022-11-11T04:57:45;14.20;;;7.80;;
22634;SDS011;11484;50.858;4.384;2022-11-11T05:02:39;12.95;;;7.60;;
22634;SDS011;11484;50.858;4.384;2022-11-11T05:05:23;11.10;;;8.13;;
22634;SDS011;11484;50.858;4.384;2022-11-11T05:07:49;13.15;;;8.43;;
22634;SDS011;11484;50.858;4.384;2022-11-11T05:10:34;12.50;;;7.97;;
22634;SDS011;11484;50.858;4.384;2022-11-11T05:13:00;14.90;;;7.70;;
22634;SDS011;11484;50.858;4.384;2022-11-11T05:15:46;9.57;;;7.10;;
22634;SDS011;11484;50.858;4.384;2022-11-11T05:18:30;10.40;;;6.60;;
22634;SDS011;11484;50.858;4.384;2022-11-11T05:21:18;12.57;;;7.68;;
22634;SDS011;11484;50.858;4.384;2022-11-11T05:23:50;10.30;;;6.60;;
22634;SDS011;11484;50.858;4.384;2022-11-11T05:26:34;8.05;;;6.57;;
22634;SDS011;11484;50.858;4.384;2022-11-11T05:29:00;11.27;;;6.75;;
22634;SDS011;11484;50.858;4.384;2022-11-11T05:31:27;7.82;;;6.30;;
22634;SDS011;11484;50.858;4.384;2022-11-11T05:33:54;14.73;;;6.93;;
22634;SDS011;11484;50.858;4.384;2022-11-11T05:36:19;12.32;;;6.45;;
22634;SDS011;11484;50.858;4.384;2022-11-11T05:38:45;13.07;;;7.40;;
22634;SDS011;11484;50.858;4.384;2022-11-11T05:41:11;10.35;;;6.72;;
22634;SDS011;11484;50.858;4.384;2022-11-11T05:43:37;11.07;;;6.93;;
22634;SDS011;11484;50.858;4.384;2022-11-11T05:46:02;11.50;;;6.80;;
22634;SDS011;11484;50.858;4.384;2022-11-11T05:48:29;10.02;;;6.60;;
22634;SDS011;11484;50.858;4.384;2022-11-11T05:50:58;14.05;;;7.30;;
22634;SDS011;11484;50.858;4.384;2022-11-11T05:53:24;12.68;;;7.00;;
22634;SDS011;11484;50.858;4.384;2022-11-11T05:55:50;14.10;;;7.32;;
22634;SDS011;11484;50.858;4.384;2022-11-11T05:58:16;12.70;;;7.75;;
22634;SDS011;11484;50.858;4.384;2022-11-11T06:00:43;12.88;;;6.97;;
22634;SDS011;11484;50.858;4.384;2022-11-11T06:03:09;14.23;;;8.25;;
22634;SDS011;11484;50.858;4.384;2022-11-11T06:05:35;12.77;;;8.05;;
22634;SDS011;11484;50.858;4.384;2022-11-11T06:08:01;15.75;;;8.75;;
22634;SDS011;11484;50.858;4.384;2022-11-11T06:10:26;14.48;;;8.30;;
22634;SDS011;11484;50.858;4.384;2022-11-11T06:12:58;16.15;;;8.63;;
22634;SDS011;11484;50.858;4.384;2022-11-11T06:15:33;15.40;;;8.75;;
22634;SDS011;11484;50.858;4.384;2022-11-11T06:18:03;14.30;;;8.43;;
22634;SDS011;11484;50.858;4.384;2022-11-11T06:20:30;14.27;;;8.40;;
22634;SDS011;11484;50.858;4.384;2022-11-11T06:22:56;14.13;;;8.63;;
22634;SDS011;11484;50.858;4.384;2022-11-11T06:25:25;13.10;;;9.13;;
22634;SDS011;11484;50.858;4.384;2022-11-11T06:28:11;15.07;;;8.70;;
22634;SDS011;11484;50.858;4.384;2022-11-11T06:30:37;15.75;;;9.02;;
22634;SDS011;11484;50.858;4.384;2022-11-11T06:33:03;15.02;;;8.88;;
22634;SDS011;11484;50.858;4.384;2022-11-11T06:35:31;16.33;;;8.88;;
22634;SDS011;11484;50.858;4.384;2022-11-11T06:38:00;14.93;;;9.27;;
22634;SDS011;11484;50.858;4.384;2022-11-11T06:40:26;14.63;;;9.38;;
22634;SDS011;11484;50.858;4.384;2022-11-11T06:42:52;13.75;;;9.30;;
22634;SDS011;11484;50.858;4.384;2022-11-11T06:45:18;13.85;;;9.10;;
22634;SDS011;11484;50.858;4.384;2022-11-11T06:47:44;14.10;;;9.55;;
22634;SDS011;11484;50.858;4.384;2022-11-11T06:50:10;15.30;;;9.63;;
22634;SDS011;11484;50.858;4.384;2022-11-11T06:52:35;16.60;;;9.48;;
22634;SDS011;11484;50.858;4.384;2022-11-11T06:55:01;15.98;;;10.00;;
22634;SDS011;11484;50.858;4.384;2022-11-11T06:57:27;17.52;;;10.13;;
22634;SDS011;11484;50.858;4.384;2022-11-11T06:59:53;16.45;;;9.95;;
22634;SDS011;11484;50.858;4.384;2022-11-11T07:02:19;20.88;;;10.30;;
22634;SDS011;11484;50.858;4.384;2022-11-11T07:04:45;16.52;;;9.90;;
22634;SDS011;11484;50.858;4.384;2022-11-11T07:07:10;17.60;;;10.40;;
22634;SDS011;11484;50.858;4.384;2022-11-11T07:09:36;14.65;;;9.57;;
22634;SDS011;11484;50.858;4.384;2022-11-11T07:12:02;16.10;;;10.80;;
22634;SDS011;11484;50.858;4.384;2022-11-11T07:14:28;16.83;;;10.45;;
22634;SDS011;11484;50.858;4.384;2022-11-11T07:16:54;16.15;;;10.70;;
22634;SDS011;11484;50.858;4.384;2022-11-11T07:19:19;17.58;;;9.88;;
22634;SDS011;11484;50.858;4.384;2022-11-11T07:21:45;13.20;;;9.68;;
22634;SDS011;11484;50.858;4.384;2022-11-11T07:24:11;15.80;;;9.27;;
22634;SDS011;11484;50.858;4.384;2022-11-11T07:26:37;16.48;;;9.88;;
22634;SDS011;11484;50.858;4.384;2022-11-11T07:29:02;18.70;;;10.32;;
22634;SDS011;11484;50.858;4.384;2022-11-11T07:31:28;15.77;;;10.00;;
22634;SDS011;11484;50.858;4.384;2022-11-11T07:33:54;13.48;;;9.80;;
22634;SDS011;11484;50.858;4.384;2022-11-11T07:36:20;16.20;;;9.50;;
22634;SDS011;11484;50.858;4.384;2022-11-11T07:38:46;17.30;;;9.32;;
22634;SDS011;11484;50.858;4.384;2022-11-11T07:41:12;19.88;;;10.68;;
22634;SDS011;11484;50.858;4.384;2022-11-11T07:43:38;14.23;;;8.70;;
22634;SDS011;11484;50.858;4.384;2022-11-11T07:46:03;15.40;;;9.43;;
22634;SDS011;11484;50.858;4.384;2022-11-11T07:48:29;14.55;;;8.90;;
22634;SDS011;11484;50.858;4.384;2022-11-11T07:50:55;16.25;;;9.68;;
22634;SDS011;11484;50.858;4.384;2022-11-11T07:53:21;16.17;;;9.80;;
22634;SDS011;11484;50.858;4.384;2022-11-11T07:55:47;15.73;;;8.77;;
22634;SDS011;11484;50.858;4.384;2022-11-11T07:58:13;17.77;;;9.10;;
22634;SDS011;11484;50.858;4.384;2022-11-11T08:00:38;14.50;;;8.45;;
22634;SDS011;11484;50.858;4.384;2022-11-11T08:03:04;14.82;;;8.43;;
22634;SDS011;11484;50.858;4.384;2022-11-11T08:05:31;15.23;;;9.27;;
22634;SDS011;11484;50.858;4.384;2022-11-11T08:08:01;12.90;;;8.00;;
22634;SDS011;11484;50.858;4.384;2022-11-11T08:10:31;12.98;;;8.82;;
22634;SDS011;11484;50.858;4.384;2022-11-11T08:12:57;14.82;;;8.57;;
22634;SDS011;11484;50.858;4.384;2022-11-11T08:15:41;16.85;;;8.85;;
22634;SDS011;11484;50.858;4.384;2022-11-11T08:18:07;14.77;;;8.85;;
22634;SDS011;11484;50.858;4.384;2022-11-11T08:20:33;15.80;;;8.98;;
22634;SDS011;11484;50.858;4.384;2022-11-11T08:22:59;14.32;;;8.60;;
22634;SDS011;11484;50.858;4.384;2022-11-11T08:25:28;13.43;;;8.95;;
22634;SDS011;11484;50.858;4.384;2022-11-11T08:27:58;12.50;;;8.50;;
22634;SDS011;11484;50.858;4.384;2022-11-11T08:30:25;16.05;;;8.52;;
22634;SDS011;11484;50.858;4.384;2022-11-11T08:32:58;13.63;;;8.80;;
22634;SDS011;11484;50.858;4.384;2022-11-11T08:35:24;13.90;;;8.02;;
22634;SDS011;11484;50.858;4.384;2022-11-11T08:37:51;14.95;;;8.88;;
22634;SDS011;11484;50.858;4.384;2022-11-11T08:40:17;15.48;;;10.95;;
22634;SDS011;11484;50.858;4.384;2022-11-11T08:42:43;14.75;;;8.25;;
22634;SDS011;11484;50.858;4.384;2022-11-11T08:45:09;14.80;;;8.80;;
22634;SDS011;11484;50.858;4.384;2022-11-11T08:47:35;13.70;;;8.27;;
22634;SDS011;11484;50.858;4.384;2022-11-11T08:50:01;14.15;;;8.02;;
22634;SDS011;11484;50.858;4.384;2022-11-11T08:52:27;13.90;;;8.02;;
22634;SDS011;11484;50.858;4.384;2022-11-11T08:54:53;14.82;;;8.88;;
22634;SDS011;11484;50.858;4.384;2022-11-11T08:57:19;14.45;;;8.75;;
22634;SDS011;11484;50.858;4.384;2022-11-11T08:59:44;13.10;;;8.63;;
22634;SDS011;11484;50.858;4.384;2022-11-11T09:02:10;13.32;;;8.63;;
22634;SDS011;11484;50.858;4.384;2022-11-11T09:04:38;14.50;;;8.75;;
22634;SDS011;11484;50.858;4.384;2022-11-11T09:07:05;14.00;;;8.40;;
22634;SDS011;11484;50.858;4.384;2022-11-11T09:09:32;16.23;;;8.80;;
22634;SDS011;11484;50.858;4.384;2022-11-11T09:11:58;15.82;;;8.93;;
22634;SDS011;11484;50.858;4.384;2022-11-11T09:14:23;13.73;;;10.00;;
22634;SDS011;11484;50.858;4.384;2022-11-11T09:16:49;11.68;;;7.70;;
22634;SDS011;11484;50.858;4.384;2022-11-11T09:19:15;14.52;;;7.90;;
22634;SDS011;11484;50.858;4.384;2022-11-11T09:21:41;12.82;;;7.93;;
22634;SDS011;11484;50.858;4.384;2022-11-11T09:24:06;11.90;;;7.45;;
22634;SDS011;11484;50.858;4.384;2022-11-11T09:26:32;10.05;;;6.97;;
22634;SDS011;11484;50.858;4.384;2022-11-11T09:28:58;10.80;;;7.20;;
22634;SDS011;11484;50.858;4.384;2022-11-11T09:31:24;10.52;;;6.03;;
22634;SDS011;11484;50.858;4.384;2022-11-11T09:33:50;10.25;;;6.97;;
22634;SDS011;11484;50.858;4.384;2022-11-11T09:36:16;13.05;;;6.95;;
22634;SDS011;11484;50.858;4.384;2022-11-11T09:38:43;8.77;;;6.22;;
22634;SDS011;11484;50.858;4.384;2022-11-11T09:43:42;12.02;;;6.32;;
22634;SDS011;11484;50.858;4.384;2022-11-11T09:46:30;9.30;;;5.85;;
22634;SDS011;11484;50.858;4.384;2022-11-11T09:54:21;8.13;;;5.32;;
22634;SDS011;11484;50.858;4.384;2022-11-11T09:56:58;5.65;;;4.63;;
22634;SDS011;11484;50.858;4.384;2022-11-11T09:59:29;8.15;;;5.13;;
22634;SDS011;11484;50.858;4.384;2022-11-11T10:02:04;7.72;;;4.63;;
22634;SDS011;11484;50.858;4.384;2022-11-11T10:07:30;7.43;;;4.18;;
22634;SDS011;11484;50.858;4.384;2022-11-11T10:10:47;8.82;;;4.35;;
22634;SDS011;11484;50.858;4.384;2022-11-11T10:13:16;6.97;;;3.90;;
22634;SDS011;11484;50.858;4.384;2022-11-11T10:15:52;5.63;;;3.67;;
22634;SDS011;11484;50.858;4.384;2022-11-11T10:18:39;5.32;;;3.90;;
22634;SDS011;11484;50.858;4.384;2022-11-11T10:21:14;7.25;;;3.58;;
22634;SDS011;11484;50.858;4.384;2022-11-11T10:23:45;7.45;;;4.43;;
22634;SDS011;11484;50.858;4.384;2022-11-11T10:26:20;6.55;;;3.55;;
22634;SDS011;11484;50.858;4.384;2022-11-11T10:28:59;5.15;;;3.20;;
22634;SDS011;11484;50.858;4.384;2022-11-11T10:31:28;6.63;;;4.05;;
22634;SDS011;11484;50.858;4.384;2022-11-11T10:34:03;6.70;;;4.15;;
22634;SDS011;11484;50.858;4.384;2022-11-11T10:36:33;5.65;;;3.33;;
22634;SDS011;11484;50.858;4.384;2022-11-11T10:39:07;5.95;;;2.80;;
22634;SDS011;11484;50.858;4.384;2022-11-11T10:41:39;7.03;;;3.05;;
22634;SDS011;11484;50.858;4.384;2022-11-11T10:44:30;4.07;;;2.80;;
22634;SDS011;11484;50.858;4.384;2022-11-11T10:47:06;2.78;;;2.22;;
22634;SDS011;11484;50.858;4.384;2022-11-11T10:49:39;6.17;;;2.43;;
22634;SDS011;11484;50.858;4.384;2022-11-11T10:52:23;4.82;;;3.30;;
22634;SDS011;11484;50.858;4.384;2022-11-11T10:57:38;6.18;;;2.80;;
22634;SDS011;11484;50.858;4.384;2022-11-11T11:05:25;3.72;;;2.20;;
22634;SDS011;11484;50.858;4.384;2022-11-11T11:08:33;5.15;;;2.53;;
22634;SDS011;11484;50.858;4.384;2022-11-11T11:11:08;4.93;;;2.25;;
22634;SDS011;11484;50.858;4.384;2022-11-11T11:13:54;4.28;;;2.13;;
22634;SDS011;11484;50.858;4.384;2022-11-11T11:16:49;3.80;;;2.22;;
22634;SDS011;11484;50.858;4.384;2022-11-11T11:19:20;3.40;;;2.20;;
22634;SDS011;11484;50.858;4.384;2022-11-11T11:24:22;4.47;;;2.08;;
22634;SDS011;11484;50.858;4.384;2022-11-11T11:26:56;3.42;;;2.10;;
22634;SDS011;11484;50.858;4.384;2022-11-11T11:29:24;3.38;;;2.20;;
22634;SDS011;11484;50.858;4.384;2022-11-11T11:31:58;4.13;;;1.95;;
22634;SDS011;11484;50.858;4.384;2022-11-11T11:34:50;4.97;;;2.65;;
22634;SDS011;11484;50.858;4.384;2022-11-11T11:37:19;4.53;;;2.20;;
22634;SDS011;11484;50.858;4.384;2022-11-11T11:39:46;5.53;;;2.90;;
22634;SDS011;11484;50.858;4.384;2022-11-11T11:42:32;4.47;;;2.15;;
22634;SDS011;11484;50.858;4.384;2022-11-11T11:45:14;4.75;;;2.35;;
22634;SDS011;11484;50.858;4.384;2022-11-11T11:55:41;5.97;;;2.50;;
22634;SDS011;11484;50.858;4.384;2022-11-11T12:00:55;6.63;;;2.53;;
22634;SDS011;11484;50.858;4.384;2022-11-11T12:09:29;3.67;;;2.28;;
22634;SDS011;11484;50.858;4.384;2022-11-11T12:17:43;6.78;;;2.72;;
22634;SDS011;11484;50.858;4.384;2022-11-11T12:28:30;6.70;;;3.00;;
22634;SDS011;11484;50.858;4.384;2022-11-11T12:31:24;5.55;;;2.50;;
22634;SDS011;11484;50.858;4.384;2022-11-11T12:34:19;7.78;;;2.97;;
22634;SDS011;11484;50.858;4.384;2022-11-11T12:37:19;5.32;;;2.30;;
22634;SDS011;11484;50.858;4.384;2022-11-11T12:46:03;7.00;;;2.63;;
22634;SDS011;11484;50.858;4.384;2022-11-11T12:48:40;5.53;;;2.45;;
22634;SDS011;11484;50.858;4.384;2022-11-11T12:54:16;4.15;;;2.40;;
22634;SDS011;11484;50.858;4.384;2022-11-11T13:02:43;5.90;;;2.58;;
22634;SDS011;11484;50.858;4.384;2022-11-11T13:05:42;8.68;;;2.63;;
22634;SDS011;11484;50.858;4.384;2022-11-11T13:16:20;4.20;;;2.10;;
22634;SDS011;11484;50.858;4.384;2022-11-11T13:18:49;5.10;;;2.20;;
22634;SDS011;11484;50.858;4.384;2022-11-11T13:21:42;7.18;;;2.65;;
22634;SDS011;11484;50.858;4.384;2022-11-11T13:24:18;4.82;;;2.42;;
22634;SDS011;11484;50.858;4.384;2022-11-11T13:32:21;5.00;;;2.17;;
22634;SDS011;11484;50.858;4.384;2022-11-11T13:34:55;5.38;;;2.65;;
22634;SDS011;11484;50.858;4.384;2022-11-11T13:37:28;4.28;;;2.20;;
22634;SDS011;11484;50.858;4.384;2022-11-11T13:40:04;4.82;;;2.42;;
22634;SDS011;11484;50.858;4.384;2022-11-11T13:42:37;4.15;;;2.13;;
22634;SDS011;11484;50.858;4.384;2022-11-11T13:45:06;4.80;;;2.38;;
22634;SDS011;11484;50.858;4.384;2022-11-11T13:47:44;3.90;;;2.55;;
22634;SDS011;11484;50.858;4.384;2022-11-11T13:50:13;4.60;;;2.42;;
22634;SDS011;11484;50.858;4.384;2022-11-11T13:55:37;4.82;;;2.50;;
22634;SDS011;11484;50.858;4.384;2022-11-11T13:58:23;3.03;;;1.83;;
22634;SDS011;11484;50.858;4.384;2022-11-11T14:00:57;3.97;;;1.90;;
22634;SDS011;11484;50.858;4.384;2022-11-11T14:03:29;4.15;;;2.22;;
22634;SDS011;11484;50.858;4.384;2022-11-11T14:13:51;5.50;;;2.95;;
22634;SDS011;11484;50.858;4.384;2022-11-11T14:17:04;5.93;;;2.55;;
22634;SDS011;11484;50.858;4.384;2022-11-11T14:19:38;3.63;;;2.20;;
22634;SDS011;11484;50.858;4.384;2022-11-11T14:22:00;4.78;;;1.92;;
22634;SDS011;11484;50.858;4.384;2022-11-11T14:24:47;4.25;;;2.50;;
22634;SDS011;11484;50.858;4.384;2022-11-11T14:27:14;3.92;;;1.80;;
22634;SDS011;11484;50.858;4.384;2022-11-11T14:30:01;3.00;;;1.65;;
22634;SDS011;11484;50.858;4.384;2022-11-11T14:40:25;3.47;;;1.90;;
22634;SDS011;11484;50.858;4.384;2022-11-11T14:42:52;3.45;;;2.00;;
22634;SDS011;11484;50.858;4.384;2022-11-11T14:47:47;3.28;;;1.60;;
22634;SDS011;11484;50.858;4.384;2022-11-11T14:53:08;2.88;;;1.90;;
22634;SDS011;11484;50.858;4.384;2022-11-11T14:55:41;5.13;;;2.35;;
22634;SDS011;11484;50.858;4.384;2022-11-11T15:06:07;4.68;;;2.10;;
22634;SDS011;11484;50.858;4.384;2022-11-11T15:09:00;6.43;;;2.33;;
22634;SDS011;11484;50.858;4.384;2022-11-11T15:39:11;6.35;;;3.35;;
22634;SDS011;11484;50.858;4.384;2022-11-11T15:41:40;9.60;;;5.95;;
22634;SDS011;11484;50.858;4.384;2022-11-11T15:44:27;5.82;;;3.50;;
22634;SDS011;11484;50.858;4.384;2022-11-11T15:46:56;7.53;;;3.15;;
22634;SDS011;11484;50.858;4.384;2022-11-11T15:52:00;5.05;;;3.08;;
22634;SDS011;11484;50.858;4.384;2022-11-11T15:54:26;4.80;;;2.80;;
22634;SDS011;11484;50.858;4.384;2022-11-11T15:56:52;3.65;;;2.58;;
22634;SDS011;11484;50.858;4.384;2022-11-11T15:59:23;3.92;;;2.50;;
22634;SDS011;11484;50.858;4.384;2022-11-11T16:01:54;5.55;;;2.90;;
22634;SDS011;11484;50.858;4.384;2022-11-11T16:04:22;7.18;;;2.90;;
22634;SDS011;11484;50.858;4.384;2022-11-11T16:06:49;7.30;;;2.67;;
22634;SDS011;11484;50.858;4.384;2022-11-11T16:09:16;4.90;;;3.70;;
22634;SDS011;11484;50.858;4.384;2022-11-11T16:11:47;6.72;;;3.95;;
22634;SDS011;11484;50.858;4.384;2022-11-11T16:14:19;8.77;;;5.60;;
22634;SDS011;11484;50.858;4.384;2022-11-11T16:16:51;8.80;;;4.50;;
22634;SDS011;11484;50.858;4.384;2022-11-11T16:19:32;8.32;;;4.65;;
22634;SDS011;11484;50.858;4.384;2022-11-11T16:22:08;7.75;;;4.45;;
22634;SDS011;11484;50.858;4.384;2022-11-11T16:24:44;6.70;;;4.70;;
22634;SDS011;11484;50.858;4.384;2022-11-11T16:27:13;9.63;;;4.68;;
22634;SDS011;11484;50.858;4.384;2022-11-11T16:29:43;8.80;;;4.88;;
22634;SDS011;11484;50.858;4.384;2022-11-11T16:32:19;11.07;;;4.90;;
22634;SDS011;11484;50.858;4.384;2022-11-11T16:34:58;8.13;;;4.10;;
22634;SDS011;11484;50.858;4.384;2022-11-11T16:37:23;8.77;;;4.80;;
22634;SDS011;11484;50.858;4.384;2022-11-11T16:39:49;9.27;;;5.97;;
22634;SDS011;11484;50.858;4.384;2022-11-11T16:42:25;7.30;;;4.97;;
22634;SDS011;11484;50.858;4.384;2022-11-11T16:44:57;8.27;;;4.72;;
22634;SDS011;11484;50.858;4.384;2022-11-11T16:50:03;10.32;;;5.85;;
22634;SDS011;11484;50.858;4.384;2022-11-11T16:52:29;8.98;;;5.50;;
22634;SDS011;11484;50.858;4.384;2022-11-11T16:55:08;8.85;;;5.50;;
22634;SDS011;11484;50.858;4.384;2022-11-11T16:57:40;8.73;;;4.97;;
22634;SDS011;11484;50.858;4.384;2022-11-11T17:00:13;9.93;;;5.30;;
22634;SDS011;11484;50.858;4.384;2022-11-11T17:02:44;8.43;;;5.60;;
22634;SDS011;11484;50.858;4.384;2022-11-11T17:05:10;9.32;;;5.72;;
22634;SDS011;11484;50.858;4.384;2022-11-11T17:07:37;9.57;;;5.00;;
22634;SDS011;11484;50.858;4.384;2022-11-11T17:10:18;9.13;;;5.07;;
22634;SDS011;11484;50.858;4.384;2022-11-11T17:12:46;8.57;;;5.00;;
22634;SDS011;11484;50.858;4.384;2022-11-11T17:15:16;9.68;;;5.35;;
22634;SDS011;11484;50.858;4.384;2022-11-11T17:17:44;7.95;;;5.45;;
22634;SDS011;11484;50.858;4.384;2022-11-11T17:20:16;9.07;;;5.53;;
22634;SDS011;11484;50.858;4.384;2022-11-11T17:22:52;6.25;;;5.03;;
22634;SDS011;11484;50.858;4.384;2022-11-11T17:25:20;9.68;;;6.20;;
22634;SDS011;11484;50.858;4.384;2022-11-11T17:27:46;9.60;;;6.00;;
22634;SDS011;11484;50.858;4.384;2022-11-11T17:30:12;8.23;;;5.95;;
22634;SDS011;11484;50.858;4.384;2022-11-11T17:32:39;9.48;;;5.85;;
22634;SDS011;11484;50.858;4.384;2022-11-11T17:35:06;8.20;;;6.07;;
22634;SDS011;11484;50.858;4.384;2022-11-11T17:37:35;10.52;;;7.05;;
22634;SDS011;11484;50.858;4.384;2022-11-11T17:40:06;11.33;;;6.90;;
22634;SDS011;11484;50.858;4.384;2022-11-11T17:42:34;15.50;;;7.45;;
22634;SDS011;11484;50.858;4.384;2022-11-11T17:45:01;15.10;;;9.57;;
22634;SDS011;11484;50.858;4.384;2022-11-11T17:47:28;11.18;;;6.93;;
22634;SDS011;11484;50.858;4.384;2022-11-11T17:49:55;9.63;;;6.45;;